Paradise Valley, Pennsylvania
Current Conditions -  °F | °C
As of 8:53 AM on Saturday 22 Nov 2014 (Local Time) from KMPO Reporting Station
Clear Clear  
Wind Chill: 13°   Ceiling: Unl
Heat Index: 24°   Visibility: 10mi
Dew Point:   Wind: 12mph
Humidity: 53%   Direction: 270°W
Pressure: 30.32"   Gusts: NA
Location:  41.1664°N, 75.2521°W
Report Text: KMPO 221353Z AUTO 27010KT 10SM CLR M04/M13 A3032 RMK AO2 SLP301 T10441128
Loading
Personal Weather Stations






























Interactive Weather Map New forecast layout! Learn more

10-Day Weather Forecast

Advertisements
Track Severe Weather on mobile